createdAt,value
2023-03-23T16:00:30.411Z,3.83
2023-03-23T16:03:57.740Z,4.53
2023-03-23T16:07:01.787Z,5.68
2023-03-23T16:10:06.984Z,7.25
2023-03-23T16:13:10.427Z,11.00
2023-03-23T16:16:23.864Z,9.17
2023-03-23T16:19:27.720Z,10.80
2023-03-23T16:22:31.156Z,10.63
2023-03-23T16:25:34.565Z,11.50
2023-03-23T16:28:37.987Z,22.98
2023-03-23T16:31:41.490Z,13.97
2023-03-23T16:34:45.001Z,14.43
2023-03-23T16:38:07.102Z,14.70
2023-03-23T16:41:10.994Z,13.82
2023-03-23T16:44:14.554Z,18.25
2023-03-23T16:47:25.661Z,9.93
2023-03-23T16:50:31.738Z,8.73
2023-03-23T16:53:36.150Z,9.80
2023-03-23T16:56:39.713Z,13.60
2023-03-23T16:59:43.446Z,17.77
2023-03-23T17:02:48.779Z,16.67
2023-03-23T17:05:52.799Z,17.90
2023-03-23T17:08:56.254Z,33.90
2023-03-23T17:11:59.858Z,22.25
2023-03-23T17:15:03.834Z,22.63
2023-03-23T17:18:08.019Z,24.67
2023-03-23T17:21:11.444Z,23.25
2023-03-23T17:24:14.785Z,27.83
2023-03-23T17:27:20.126Z,19.88
2023-03-23T17:30:23.840Z,14.32
2023-03-23T17:33:27.297Z,10.77
2023-03-23T17:36:31.294Z,11.00
2023-03-23T17:39:42.312Z,9.18
2023-03-23T17:42:47.239Z,11.43
2023-03-23T17:45:51.207Z,13.75
2023-03-23T17:48:54.934Z,17.77
2023-03-23T17:51:59.667Z,20.30
2023-03-23T17:55:03.827Z,24.60
2023-03-23T17:58:07.274Z,24.73
2023-03-23T18:01:11.304Z,24.23
2023-03-23T18:04:15.186Z,24.60
2023-03-23T18:07:23.496Z,25.20
2023-03-23T18:10:27.149Z,26.63
2023-03-23T18:13:33.554Z,30.48
2023-03-23T18:16:37.222Z,18.70
2023-03-23T18:19:41.457Z,6.40
2023-03-23T18:22:45.429Z,4.75
2023-03-23T18:25:53.701Z,25.17
2023-03-23T18:28:57.615Z,20.70
2023-03-23T18:32:01.796Z,10.25
2023-03-23T18:35:06.941Z,11.10
2023-03-23T18:38:11.058Z,7.50
2023-03-23T18:41:15.797Z,7.18
2023-03-23T18:44:19.699Z,4.97
2023-03-23T18:47:23.452Z,7.30
2023-03-23T18:50:27.194Z,10.47
2023-03-23T18:53:31.950Z,11.65
2023-03-23T18:56:35.588Z,23.00
2023-03-23T18:59:39.051Z,24.13
2023-03-23T19:02:42.939Z,17.13
2023-03-23T19:05:47.614Z,17.07
2023-03-23T19:08:52.488Z,18.25
2023-03-23T19:11:56.568Z,15.60
2023-03-23T19:15:00.357Z,15.50
2023-03-23T19:18:03.863Z,15.02
2023-03-23T19:21:14.963Z,14.97
2023-03-23T19:24:21.698Z,14.75
2023-03-23T19:27:26.398Z,14.85
2023-03-23T19:30:30.135Z,16.58
2023-03-23T19:33:33.915Z,17.75
2023-03-23T19:36:38.131Z,14.13
2023-03-23T19:39:43.002Z,12.23
2023-03-23T19:42:47.026Z,22.23
2023-03-23T19:45:51.206Z,16.40
2023-03-23T19:48:56.518Z,20.02
2023-03-23T19:52:09.117Z,23.67
2023-03-23T19:55:15.421Z,17.98
2023-03-23T19:58:19.838Z,15.23
2023-03-23T20:01:24.332Z,13.20
2023-03-23T20:04:28.208Z,15.63
2023-03-23T20:07:31.972Z,20.80
2023-03-23T20:10:37.170Z,19.65
2023-03-23T20:13:41.929Z,15.50
2023-03-23T20:16:45.860Z,13.98
2023-03-23T20:19:49.566Z,15.35
2023-03-23T20:22:55.242Z,14.60
2023-03-23T20:26:04.345Z,14.50
2023-03-23T20:29:09.049Z,11.52
2023-03-23T20:32:13.161Z,11.65
2023-03-23T20:35:16.894Z,15.43
2023-03-23T20:38:20.763Z,20.70
2023-03-23T20:41:24.424Z,23.88
2023-03-23T20:44:31.230Z,24.08
2023-03-23T20:47:34.876Z,26.27
2023-03-23T20:50:38.539Z,25.75
2023-03-23T20:53:42.309Z,23.13
2023-03-23T20:56:47.139Z,20.45
2023-03-23T20:59:52.437Z,15.45
2023-03-23T21:02:57.420Z,13.80
2023-03-23T21:06:03.358Z,10.90
2023-03-23T21:09:06.965Z,11.27
2023-03-23T21:12:11.561Z,9.73
2023-03-23T21:15:15.635Z,10.85
2023-03-23T21:18:19.262Z,10.48
2023-03-23T21:21:23.363Z,10.13
2023-03-23T21:24:28.623Z,9.87
2023-03-23T21:27:32.338Z,10.05
2023-03-23T21:30:35.775Z,8.98
2023-03-23T21:33:39.476Z,9.52
2023-03-23T21:36:43.095Z,10.75
2023-03-23T21:39:46.752Z,9.23
2023-03-23T21:42:51.196Z,8.07
2023-03-23T21:46:02.911Z,7.55
2023-03-23T21:49:10.167Z,7.60
2023-03-23T21:52:13.587Z,7.60
2023-03-23T21:55:17.240Z,9.00
2023-03-23T21:58:23.415Z,8.35
2023-03-23T22:01:28.548Z,9.35
2023-03-23T22:04:32.367Z,8.90
2023-03-23T22:07:39.276Z,9.20
2023-03-23T22:11:00.813Z,6.77
2023-03-23T22:14:06.961Z,6.97
2023-03-23T22:17:10.615Z,7.40
2023-03-23T22:20:14.786Z,9.50
2023-03-23T22:23:18.345Z,10.80
2023-03-23T22:26:22.077Z,11.73
2023-03-23T22:29:25.705Z,7.78
2023-03-23T22:32:29.308Z,8.18
2023-03-23T22:35:33.842Z,9.02
2023-03-23T22:38:39.458Z,10.77
2023-03-23T22:41:43.650Z,9.33
2023-03-23T22:44:47.073Z,14.45
2023-03-23T22:47:51.149Z,12.63
2023-03-23T22:50:55.339Z,9.93
2023-03-23T22:53:59.001Z,10.57
2023-03-23T22:57:02.561Z,10.23
2023-03-23T23:00:14.813Z,12.90
2023-03-23T23:03:18.854Z,16.23
2023-03-23T23:06:22.837Z,16.42
2023-03-23T23:09:27.530Z,8.55
2023-03-23T23:12:35.310Z,6.93
2023-03-23T23:15:43.606Z,9.65
2023-03-23T23:18:48.403Z,9.50
2023-03-23T23:21:51.876Z,15.43
2023-03-23T23:24:55.457Z,15.55
2023-03-23T23:28:00.786Z,12.10
2023-03-23T23:31:06.408Z,10.82
2023-03-23T23:34:13.538Z,8.45
2023-03-23T23:37:16.967Z,8.07
2023-03-23T23:40:20.716Z,8.30
2023-03-23T23:43:24.183Z,8.40
2023-03-23T23:46:30.574Z,7.78
2023-03-23T23:49:34.403Z,7.22
2023-03-23T23:52:39.208Z,5.70
2023-03-23T23:55:43.593Z,5.00
2023-03-23T23:58:48.667Z,5.37
